24A

Jackson County Airport

Sylva, North Carolina, USA
METAR K24A 260535Z AUTO 30005KT 10SM OVC028 11/08 A2994 RMK AO2 T01050082
Observed Flight Rules
Apr-26 @ 05:35 UTC (19 minutes ago) Marginal Visual Flight Rules
Wind Visibility Clouds
300° at 5 knots 10 miles
  • Overcast at 2,800' AGL
Temperatures Readings
Current 11°C / 52°F
Dewpoint 8°C / 46°F
Humidity 82%
Altimeter 29.94" Hg
Pressure 1014 hPa
Elevation 871
METAR K24A 260535Z AUTO 30005KT 10SM OVC028 11/08 A2994 RMK AO2 T01050082
Observed Flight Rules
Apr-26 @ 05:35 UTC
(19 minutes ago)
MVFR
Wind Visibility
300° at 5 knots 10 miles
Clouds
  • Overcast at 2,800' AGL
Temperature Dewpoint
11°C / 52°F 8°C / 46°F
Humidity Altimeter Pressure
82% 29.94" Hg 1014 hPa